sensor_id;sensor_type;location;lat;lon;timestamp;P1;durP1;ratioP1;P2;durP2;ratioP2
76103;SDS011;64831;44.870;37.336;2022-12-07T00:03:36;15.43;;;5.60;;
76103;SDS011;64831;44.870;37.336;2022-12-07T00:06:04;13.10;;;5.00;;
76103;SDS011;64831;44.870;37.336;2022-12-07T00:08:31;12.18;;;5.47;;
76103;SDS011;64831;44.870;37.336;2022-12-07T00:11:02;11.00;;;5.00;;
76103;SDS011;64831;44.870;37.336;2022-12-07T00:13:31;11.52;;;5.43;;
76103;SDS011;64831;44.870;37.336;2022-12-07T00:16:05;14.45;;;5.85;;
76103;SDS011;64831;44.870;37.336;2022-12-07T00:18:33;13.63;;;5.68;;
76103;SDS011;64831;44.870;37.336;2022-12-07T00:21:03;12.95;;;5.68;;
76103;SDS011;64831;44.870;37.336;2022-12-07T00:23:40;11.43;;;5.45;;
76103;SDS011;64831;44.870;37.336;2022-12-07T00:26:08;9.73;;;4.60;;
76103;SDS011;64831;44.870;37.336;2022-12-07T00:28:37;10.90;;;5.20;;
76103;SDS011;64831;44.870;37.336;2022-12-07T00:31:04;8.93;;;4.63;;
76103;SDS011;64831;44.870;37.336;2022-12-07T00:33:40;10.68;;;4.75;;
76103;SDS011;64831;44.870;37.336;2022-12-07T00:36:07;11.50;;;5.38;;
76103;SDS011;64831;44.870;37.336;2022-12-07T00:38:36;11.27;;;5.00;;
76103;SDS011;64831;44.870;37.336;2022-12-07T00:41:04;9.85;;;4.82;;
76103;SDS011;64831;44.870;37.336;2022-12-07T00:43:33;12.45;;;5.45;;
76103;SDS011;64831;44.870;37.336;2022-12-07T00:45:59;13.02;;;5.70;;
76103;SDS011;64831;44.870;37.336;2022-12-07T00:48:25;11.80;;;4.50;;
76103;SDS011;64831;44.870;37.336;2022-12-07T00:50:51;9.43;;;4.47;;
76103;SDS011;64831;44.870;37.336;2022-12-07T00:53:17;10.68;;;4.85;;
76103;SDS011;64831;44.870;37.336;2022-12-07T00:55:43;11.98;;;5.63;;
76103;SDS011;64831;44.870;37.336;2022-12-07T00:58:10;12.23;;;5.30;;
76103;SDS011;64831;44.870;37.336;2022-12-07T01:00:37;11.98;;;4.72;;
76103;SDS011;64831;44.870;37.336;2022-12-07T01:03:05;13.93;;;5.50;;
76103;SDS011;64831;44.870;37.336;2022-12-07T01:05:31;16.17;;;5.55;;
76103;SDS011;64831;44.870;37.336;2022-12-07T01:07:57;11.52;;;5.05;;
76103;SDS011;64831;44.870;37.336;2022-12-07T01:10:23;11.55;;;4.75;;
76103;SDS011;64831;44.870;37.336;2022-12-07T01:12:49;10.80;;;5.55;;
76103;SDS011;64831;44.870;37.336;2022-12-07T01:15:15;14.10;;;6.18;;
76103;SDS011;64831;44.870;37.336;2022-12-07T01:17:41;12.55;;;5.30;;
76103;SDS011;64831;44.870;37.336;2022-12-07T01:20:07;15.57;;;6.10;;
76103;SDS011;64831;44.870;37.336;2022-12-07T01:22:37;11.10;;;4.53;;
76103;SDS011;64831;44.870;37.336;2022-12-07T01:25:04;11.60;;;5.00;;
76103;SDS011;64831;44.870;37.336;2022-12-07T01:27:32;13.88;;;6.20;;
76103;SDS011;64831;44.870;37.336;2022-12-07T01:29:58;11.25;;;5.43;;
76103;SDS011;64831;44.870;37.336;2022-12-07T01:32:24;12.73;;;5.88;;
76103;SDS011;64831;44.870;37.336;2022-12-07T01:34:50;10.20;;;4.80;;
76103;SDS011;64831;44.870;37.336;2022-12-07T01:37:16;15.10;;;5.45;;
76103;SDS011;64831;44.870;37.336;2022-12-07T01:39:42;12.80;;;5.35;;
76103;SDS011;64831;44.870;37.336;2022-12-07T01:42:11;11.55;;;5.43;;
76103;SDS011;64831;44.870;37.336;2022-12-07T01:47:40;10.02;;;4.70;;
76103;SDS011;64831;44.870;37.336;2022-12-07T01:50:08;15.20;;;5.95;;
76103;SDS011;64831;44.870;37.336;2022-12-07T01:52:35;13.05;;;5.53;;
76103;SDS011;64831;44.870;37.336;2022-12-07T01:55:09;11.23;;;5.70;;
76103;SDS011;64831;44.870;37.336;2022-12-07T01:57:40;18.15;;;6.93;;
76103;SDS011;64831;44.870;37.336;2022-12-07T02:00:11;15.95;;;6.47;;
76103;SDS011;64831;44.870;37.336;2022-12-07T02:02:54;15.10;;;6.65;;
76103;SDS011;64831;44.870;37.336;2022-12-07T02:05:25;15.30;;;5.88;;
76103;SDS011;64831;44.870;37.336;2022-12-07T02:07:53;12.73;;;6.10;;
76103;SDS011;64831;44.870;37.336;2022-12-07T02:10:22;12.68;;;5.72;;
76103;SDS011;64831;44.870;37.336;2022-12-07T02:12:54;14.10;;;5.82;;
76103;SDS011;64831;44.870;37.336;2022-12-07T02:15:35;13.82;;;6.03;;
76103;SDS011;64831;44.870;37.336;2022-12-07T02:24:00;16.88;;;6.20;;
76103;SDS011;64831;44.870;37.336;2022-12-07T02:26:47;12.85;;;5.97;;
76103;SDS011;64831;44.870;37.336;2022-12-07T02:29:35;16.67;;;6.03;;
76103;SDS011;64831;44.870;37.336;2022-12-07T02:40:27;13.07;;;6.07;;
76103;SDS011;64831;44.870;37.336;2022-12-07T02:43:07;13.43;;;6.00;;
76103;SDS011;64831;44.870;37.336;2022-12-07T02:45:40;12.90;;;5.05;;
76103;SDS011;64831;44.870;37.336;2022-12-07T02:48:07;13.02;;;6.22;;
76103;SDS011;64831;44.870;37.336;2022-12-07T02:50:35;12.73;;;5.63;;
76103;SDS011;64831;44.870;37.336;2022-12-07T02:53:01;16.77;;;6.45;;
76103;SDS011;64831;44.870;37.336;2022-12-07T02:55:33;13.90;;;6.35;;
76103;SDS011;64831;44.870;37.336;2022-12-07T03:00:39;15.95;;;5.70;;
76103;SDS011;64831;44.870;37.336;2022-12-07T03:03:22;13.02;;;5.50;;
76103;SDS011;64831;44.870;37.336;2022-12-07T03:08:54;14.77;;;6.30;;
76103;SDS011;64831;44.870;37.336;2022-12-07T03:11:42;12.65;;;5.85;;
76103;SDS011;64831;44.870;37.336;2022-12-07T03:14:15;12.30;;;6.05;;
76103;SDS011;64831;44.870;37.336;2022-12-07T03:16:57;13.70;;;6.10;;
76103;SDS011;64831;44.870;37.336;2022-12-07T03:19:29;10.93;;;5.60;;
76103;SDS011;64831;44.870;37.336;2022-12-07T03:22:08;14.02;;;5.97;;
76103;SDS011;64831;44.870;37.336;2022-12-07T03:24:39;13.07;;;6.20;;
76103;SDS011;64831;44.870;37.336;2022-12-07T03:27:13;14.25;;;5.75;;
76103;SDS011;64831;44.870;37.336;2022-12-07T03:29:55;14.23;;;6.97;;
76103;SDS011;64831;44.870;37.336;2022-12-07T03:42:49;13.63;;;6.13;;
76103;SDS011;64831;44.870;37.336;2022-12-07T03:45:16;13.32;;;6.15;;
76103;SDS011;64831;44.870;37.336;2022-12-07T03:47:53;11.38;;;5.15;;
76103;SDS011;64831;44.870;37.336;2022-12-07T03:50:40;15.68;;;5.93;;
76103;SDS011;64831;44.870;37.336;2022-12-07T03:53:15;17.35;;;6.00;;
76103;SDS011;64831;44.870;37.336;2022-12-07T03:55:45;14.43;;;6.93;;
76103;SDS011;64831;44.870;37.336;2022-12-07T03:58:17;14.50;;;6.40;;
76103;SDS011;64831;44.870;37.336;2022-12-07T04:00:45;13.35;;;5.93;;
76103;SDS011;64831;44.870;37.336;2022-12-07T04:03:12;16.30;;;6.30;;
76103;SDS011;64831;44.870;37.336;2022-12-07T04:05:38;14.65;;;5.90;;
76103;SDS011;64831;44.870;37.336;2022-12-07T04:08:04;13.77;;;5.75;;
76103;SDS011;64831;44.870;37.336;2022-12-07T04:10:30;12.45;;;5.60;;
76103;SDS011;64831;44.870;37.336;2022-12-07T04:12:57;14.38;;;6.25;;
76103;SDS011;64831;44.870;37.336;2022-12-07T04:15:22;13.77;;;6.03;;
76103;SDS011;64831;44.870;37.336;2022-12-07T04:17:49;14.02;;;6.18;;
76103;SDS011;64831;44.870;37.336;2022-12-07T04:20:15;12.68;;;6.22;;
76103;SDS011;64831;44.870;37.336;2022-12-07T04:22:42;13.13;;;5.68;;
76103;SDS011;64831;44.870;37.336;2022-12-07T04:25:08;13.85;;;6.30;;
76103;SDS011;64831;44.870;37.336;2022-12-07T04:27:34;13.48;;;6.00;;
76103;SDS011;64831;44.870;37.336;2022-12-07T04:29:59;19.83;;;6.38;;
76103;SDS011;64831;44.870;37.336;2022-12-07T04:32:25;14.73;;;6.22;;
76103;SDS011;64831;44.870;37.336;2022-12-07T04:34:51;19.30;;;6.22;;
76103;SDS011;64831;44.870;37.336;2022-12-07T04:37:17;18.23;;;6.50;;
76103;SDS011;64831;44.870;37.336;2022-12-07T04:39:43;15.85;;;6.22;;
76103;SDS011;64831;44.870;37.336;2022-12-07T04:42:12;16.45;;;6.15;;
76103;SDS011;64831;44.870;37.336;2022-12-07T04:44:38;13.07;;;5.70;;
76103;SDS011;64831;44.870;37.336;2022-12-07T12:34:00;4.22;;;1.48;;
76103;SDS011;64831;44.870;37.336;2022-12-07T12:39:18;2.72;;;1.70;;
76103;SDS011;64831;44.870;37.336;2022-12-07T12:51:45;3.08;;;1.55;;
76103;SDS011;64831;44.870;37.336;2022-12-07T12:55:00;1.35;;;1.20;;
76103;SDS011;64831;44.870;37.336;2022-12-07T12:57:37;7.05;;;1.70;;
76103;SDS011;64831;44.870;37.336;2022-12-07T13:00:19;2.50;;;1.20;;
76103;SDS011;64831;44.870;37.336;2022-12-07T13:02:51;4.97;;;1.50;;
76103;SDS011;64831;44.870;37.336;2022-12-07T13:05:22;1.80;;;1.30;;
76103;SDS011;64831;44.870;37.336;2022-12-07T13:07:53;1.88;;;1.13;;
76103;SDS011;64831;44.870;37.336;2022-12-07T13:15:31;9.70;;;1.60;;
76103;SDS011;64831;44.870;37.336;2022-12-07T13:20:57;3.80;;;1.45;;
76103;SDS011;64831;44.870;37.336;2022-12-07T13:23:51;5.63;;;1.65;;
76103;SDS011;64831;44.870;37.336;2022-12-07T13:31:49;5.93;;;1.50;;
76103;SDS011;64831;44.870;37.336;2022-12-07T13:34:33;2.95;;;1.58;;
76103;SDS011;64831;44.870;37.336;2022-12-07T13:39:35;2.58;;;1.50;;
76103;SDS011;64831;44.870;37.336;2022-12-07T13:42:27;2.42;;;1.50;;
76103;SDS011;64831;44.870;37.336;2022-12-07T13:44:55;2.67;;;1.58;;
76103;SDS011;64831;44.870;37.336;2022-12-07T13:52:56;1.77;;;1.10;;
76103;SDS011;64831;44.870;37.336;2022-12-07T13:55:24;3.35;;;1.50;;
76103;SDS011;64831;44.870;37.336;2022-12-07T13:57:51;4.65;;;1.55;;
76103;SDS011;64831;44.870;37.336;2022-12-07T14:00:25;2.53;;;1.33;;
76103;SDS011;64831;44.870;37.336;2022-12-07T14:03:00;5.20;;;1.50;;
76103;SDS011;64831;44.870;37.336;2022-12-07T14:05:30;2.38;;;1.45;;
76103;SDS011;64831;44.870;37.336;2022-12-07T14:08:05;2.30;;;1.30;;
76103;SDS011;64831;44.870;37.336;2022-12-07T14:15:56;9.73;;;3.90;;
76103;SDS011;64831;44.870;37.336;2022-12-07T14:21:05;6.47;;;1.98;;
76103;SDS011;64831;44.870;37.336;2022-12-07T14:23:39;9.02;;;3.70;;
76103;SDS011;64831;44.870;37.336;2022-12-07T14:26:16;17.20;;;7.15;;
76103;SDS011;64831;44.870;37.336;2022-12-07T14:28:45;18.50;;;6.30;;
76103;SDS011;64831;44.870;37.336;2022-12-07T14:31:13;12.93;;;4.43;;
76103;SDS011;64831;44.870;37.336;2022-12-07T14:33:40;8.80;;;3.72;;
76103;SDS011;64831;44.870;37.336;2022-12-07T14:36:10;15.05;;;5.00;;
76103;SDS011;64831;44.870;37.336;2022-12-07T14:38:37;9.48;;;4.65;;
76103;SDS011;64831;44.870;37.336;2022-12-07T14:41:06;15.88;;;7.22;;
76103;SDS011;64831;44.870;37.336;2022-12-07T14:43:59;13.57;;;6.10;;
76103;SDS011;64831;44.870;37.336;2022-12-07T14:46:25;15.82;;;6.78;;
76103;SDS011;64831;44.870;37.336;2022-12-07T14:48:51;18.35;;;7.93;;
76103;SDS011;64831;44.870;37.336;2022-12-07T14:51:17;17.50;;;8.05;;
76103;SDS011;64831;44.870;37.336;2022-12-07T14:53:48;40.03;;;12.98;;
76103;SDS011;64831;44.870;37.336;2022-12-07T14:56:17;36.28;;;14.27;;
76103;SDS011;64831;44.870;37.336;2022-12-07T14:58:42;38.85;;;13.45;;
76103;SDS011;64831;44.870;37.336;2022-12-07T15:01:08;49.42;;;16.63;;
76103;SDS011;64831;44.870;37.336;2022-12-07T15:03:34;39.40;;;15.43;;
76103;SDS011;64831;44.870;37.336;2022-12-07T15:06:05;40.88;;;17.33;;
76103;SDS011;64831;44.870;37.336;2022-12-07T15:08:32;38.25;;;15.25;;
76103;SDS011;64831;44.870;37.336;2022-12-07T15:10:58;32.22;;;12.93;;
76103;SDS011;64831;44.870;37.336;2022-12-07T15:13:24;39.65;;;13.20;;
76103;SDS011;64831;44.870;37.336;2022-12-07T15:16:10;39.75;;;16.35;;
76103;SDS011;64831;44.870;37.336;2022-12-07T15:18:38;41.10;;;15.07;;
76103;SDS011;64831;44.870;37.336;2022-12-07T15:21:04;42.13;;;14.50;;
76103;SDS011;64831;44.870;37.336;2022-12-07T15:23:30;32.28;;;12.98;;
76103;SDS011;64831;44.870;37.336;2022-12-07T15:25:56;36.97;;;12.05;;
76103;SDS011;64831;44.870;37.336;2022-12-07T15:28:22;26.80;;;12.13;;
76103;SDS011;64831;44.870;37.336;2022-12-07T15:30:48;30.65;;;13.30;;
76103;SDS011;64831;44.870;37.336;2022-12-07T15:33:17;44.80;;;17.10;;
76103;SDS011;64831;44.870;37.336;2022-12-07T15:35:43;62.40;;;21.38;;
76103;SDS011;64831;44.870;37.336;2022-12-07T15:38:10;51.15;;;19.33;;
76103;SDS011;64831;44.870;37.336;2022-12-07T15:40:37;51.63;;;18.63;;
76103;SDS011;64831;44.870;37.336;2022-12-07T15:43:03;54.75;;;19.15;;
76103;SDS011;64831;44.870;37.336;2022-12-07T15:45:29;54.47;;;19.50;;
76103;SDS011;64831;44.870;37.336;2022-12-07T15:47:55;54.88;;;19.23;;
76103;SDS011;64831;44.870;37.336;2022-12-07T15:50:21;50.75;;;19.15;;
76103;SDS011;64831;44.870;37.336;2022-12-07T15:52:48;43.58;;;15.65;;
76103;SDS011;64831;44.870;37.336;2022-12-07T15:55:14;31.90;;;11.60;;
76103;SDS011;64831;44.870;37.336;2022-12-07T15:57:40;27.08;;;9.93;;
76103;SDS011;64831;44.870;37.336;2022-12-07T16:00:07;23.65;;;10.10;;
76103;SDS011;64831;44.870;37.336;2022-12-07T16:02:34;25.23;;;11.40;;
76103;SDS011;64831;44.870;37.336;2022-12-07T16:05:02;24.13;;;11.13;;
76103;SDS011;64831;44.870;37.336;2022-12-07T16:07:28;39.78;;;12.85;;
76103;SDS011;64831;44.870;37.336;2022-12-07T16:09:55;27.00;;;9.15;;
76103;SDS011;64831;44.870;37.336;2022-12-07T16:12:21;32.70;;;10.68;;
76103;SDS011;64831;44.870;37.336;2022-12-07T16:14:50;24.25;;;10.18;;
76103;SDS011;64831;44.870;37.336;2022-12-07T16:17:16;28.30;;;9.70;;
76103;SDS011;64831;44.870;37.336;2022-12-07T16:19:42;20.52;;;7.75;;
76103;SDS011;64831;44.870;37.336;2022-12-07T16:22:08;16.58;;;6.90;;
76103;SDS011;64831;44.870;37.336;2022-12-07T16:24:34;13.88;;;6.82;;
76103;SDS011;64831;44.870;37.336;2022-12-07T16:26:59;16.77;;;7.13;;
76103;SDS011;64831;44.870;37.336;2022-12-07T16:29:25;23.58;;;7.97;;
76103;SDS011;64831;44.870;37.336;2022-12-07T16:31:51;22.73;;;8.55;;
76103;SDS011;64831;44.870;37.336;2022-12-07T16:34:17;23.95;;;8.13;;
76103;SDS011;64831;44.870;37.336;2022-12-07T16:36:44;24.45;;;9.25;;
76103;SDS011;64831;44.870;37.336;2022-12-07T16:39:10;18.33;;;8.00;;
76103;SDS011;64831;44.870;37.336;2022-12-07T16:41:36;22.27;;;9.07;;
76103;SDS011;64831;44.870;37.336;2022-12-07T16:44:04;27.77;;;9.68;;
76103;SDS011;64831;44.870;37.336;2022-12-07T16:46:32;21.05;;;8.73;;
76103;SDS011;64831;44.870;37.336;2022-12-07T16:48:58;23.92;;;9.43;;
76103;SDS011;64831;44.870;37.336;2022-12-07T16:51:24;22.88;;;9.30;;
76103;SDS011;64831;44.870;37.336;2022-12-07T16:53:50;27.13;;;11.00;;
76103;SDS011;64831;44.870;37.336;2022-12-07T16:56:18;24.27;;;9.35;;
76103;SDS011;64831;44.870;37.336;2022-12-07T16:58:44;28.98;;;9.68;;
76103;SDS011;64831;44.870;37.336;2022-12-07T17:01:15;23.77;;;10.05;;
76103;SDS011;64831;44.870;37.336;2022-12-07T17:03:43;31.02;;;11.73;;
76103;SDS011;64831;44.870;37.336;2022-12-07T17:06:13;29.73;;;11.55;;
76103;SDS011;64831;44.870;37.336;2022-12-07T17:08:47;30.65;;;11.70;;
76103;SDS011;64831;44.870;37.336;2022-12-07T17:11:16;28.38;;;12.13;;
76103;SDS011;64831;44.870;37.336;2022-12-07T17:13:49;34.50;;;12.32;;
76103;SDS011;64831;44.870;37.336;2022-12-07T17:16:33;20.55;;;9.45;;
76103;SDS011;64831;44.870;37.336;2022-12-07T17:19:03;28.38;;;10.90;;
76103;SDS011;64831;44.870;37.336;2022-12-07T17:21:30;22.83;;;10.30;;
76103;SDS011;64831;44.870;37.336;2022-12-07T17:24:00;20.02;;;9.00;;
76103;SDS011;64831;44.870;37.336;2022-12-07T17:26:28;18.40;;;8.65;;
76103;SDS011;64831;44.870;37.336;2022-12-07T17:28:55;19.70;;;8.35;;
76103;SDS011;64831;44.870;37.336;2022-12-07T17:31:21;24.67;;;10.50;;
76103;SDS011;64831;44.870;37.336;2022-12-07T17:33:49;27.63;;;10.20;;
76103;SDS011;64831;44.870;37.336;2022-12-07T17:36:19;21.73;;;9.07;;
76103;SDS011;64831;44.870;37.336;2022-12-07T17:38:47;20.27;;;9.05;;
76103;SDS011;64831;44.870;37.336;2022-12-07T17:41:17;17.05;;;7.75;;
76103;SDS011;64831;44.870;37.336;2022-12-07T17:44:03;18.40;;;7.80;;
76103;SDS011;64831;44.870;37.336;2022-12-07T17:46:30;17.63;;;7.28;;
76103;SDS011;64831;44.870;37.336;2022-12-07T17:48:56;16.77;;;6.93;;
76103;SDS011;64831;44.870;37.336;2022-12-07T17:51:24;17.92;;;6.60;;
76103;SDS011;64831;44.870;37.336;2022-12-07T17:54:09;18.27;;;7.10;;
76103;SDS011;64831;44.870;37.336;2022-12-07T17:56:36;17.25;;;7.25;;
76103;SDS011;64831;44.870;37.336;2022-12-07T17:59:02;17.73;;;7.10;;
76103;SDS011;64831;44.870;37.336;2022-12-07T18:01:29;22.67;;;9.32;;
76103;SDS011;64831;44.870;37.336;2022-12-07T18:03:55;19.95;;;7.97;;
76103;SDS011;64831;44.870;37.336;2022-12-07T18:06:21;16.63;;;7.32;;
76103;SDS011;64831;44.870;37.336;2022-12-07T18:08:47;15.75;;;6.75;;
76103;SDS011;64831;44.870;37.336;2022-12-07T18:11:16;15.23;;;7.03;;
76103;SDS011;64831;44.870;37.336;2022-12-07T18:13:42;13.65;;;6.32;;
76103;SDS011;64831;44.870;37.336;2022-12-07T18:16:09;15.85;;;6.15;;
76103;SDS011;64831;44.870;37.336;2022-12-07T18:18:38;13.63;;;7.00;;
76103;SDS011;64831;44.870;37.336;2022-12-07T18:21:08;15.30;;;7.05;;
76103;SDS011;64831;44.870;37.336;2022-12-07T18:23:39;13.30;;;6.63;;
76103;SDS011;64831;44.870;37.336;2022-12-07T18:26:05;14.65;;;7.20;;
76103;SDS011;64831;44.870;37.336;2022-12-07T18:28:31;16.88;;;7.35;;
76103;SDS011;64831;44.870;37.336;2022-12-07T18:30:57;31.23;;;11.98;;
76103;SDS011;64831;44.870;37.336;2022-12-07T18:33:23;23.63;;;11.35;;
76103;SDS011;64831;44.870;37.336;2022-12-07T18:35:49;30.95;;;15.02;;
76103;SDS011;64831;44.870;37.336;2022-12-07T18:38:16;31.33;;;14.70;;
76103;SDS011;64831;44.870;37.336;2022-12-07T18:40:43;28.58;;;15.40;;
76103;SDS011;64831;44.870;37.336;2022-12-07T18:43:10;27.65;;;14.00;;
76103;SDS011;64831;44.870;37.336;2022-12-07T18:45:38;27.25;;;14.10;;
76103;SDS011;64831;44.870;37.336;2022-12-07T18:48:08;21.80;;;11.57;;
76103;SDS011;64831;44.870;37.336;2022-12-07T18:50:34;22.40;;;12.40;;
76103;SDS011;64831;44.870;37.336;2022-12-07T18:53:03;29.48;;;13.50;;
76103;SDS011;64831;44.870;37.336;2022-12-07T18:55:30;24.15;;;11.70;;
76103;SDS011;64831;44.870;37.336;2022-12-07T18:57:57;21.70;;;10.07;;
76103;SDS011;64831;44.870;37.336;2022-12-07T19:00:24;18.58;;;8.57;;
76103;SDS011;64831;44.870;37.336;2022-12-07T19:02:51;25.40;;;10.15;;
76103;SDS011;64831;44.870;37.336;2022-12-07T19:05:18;22.85;;;10.90;;
76103;SDS011;64831;44.870;37.336;2022-12-07T19:07:45;26.13;;;10.85;;
76103;SDS011;64831;44.870;37.336;2022-12-07T19:10:12;15.65;;;8.05;;
76103;SDS011;64831;44.870;37.336;2022-12-07T19:12:39;31.88;;;12.45;;
76103;SDS011;64831;44.870;37.336;2022-12-07T19:15:06;22.85;;;10.38;;
76103;SDS011;64831;44.870;37.336;2022-12-07T19:17:33;25.48;;;9.65;;
76103;SDS011;64831;44.870;37.336;2022-12-07T19:20:00;21.00;;;9.55;;
76103;SDS011;64831;44.870;37.336;2022-12-07T19:22:26;20.27;;;9.32;;
76103;SDS011;64831;44.870;37.336;2022-12-07T19:24:53;22.95;;;8.82;;
76103;SDS011;64831;44.870;37.336;2022-12-07T19:27:20;14.00;;;6.60;;
76103;SDS011;64831;44.870;37.336;2022-12-07T19:29:47;19.15;;;9.23;;
76103;SDS011;64831;44.870;37.336;2022-12-07T19:32:14;19.45;;;8.10;;
76103;SDS011;64831;44.870;37.336;2022-12-07T19:34:41;20.50;;;7.82;;
76103;SDS011;64831;44.870;37.336;2022-12-07T19:37:09;14.52;;;6.07;;
76103;SDS011;64831;44.870;37.336;2022-12-07T19:39:37;14.57;;;7.40;;
76103;SDS011;64831;44.870;37.336;2022-12-07T19:42:06;19.27;;;7.93;;
76103;SDS011;64831;44.870;37.336;2022-12-07T19:44:32;16.70;;;8.10;;
76103;SDS011;64831;44.870;37.336;2022-12-07T19:46:59;17.02;;;8.02;;
76103;SDS011;64831;44.870;37.336;2022-12-07T19:49:27;22.48;;;9.27;;
76103;SDS011;64831;44.870;37.336;2022-12-07T19:51:55;9.32;;;4.35;;
76103;SDS011;64831;44.870;37.336;2022-12-07T19:54:24;15.60;;;7.60;;
76103;SDS011;64831;44.870;37.336;2022-12-07T19:56:52;16.67;;;6.85;;
76103;SDS011;64831;44.870;37.336;2022-12-07T19:59:19;14.73;;;6.60;;
76103;SDS011;64831;44.870;37.336;2022-12-07T20:01:46;18.70;;;6.30;;
76103;SDS011;64831;44.870;37.336;2022-12-07T20:04:14;13.27;;;5.90;;
76103;SDS011;64831;44.870;37.336;2022-12-07T20:06:42;12.40;;;5.28;;
76103;SDS011;64831;44.870;37.336;2022-12-07T20:09:08;11.40;;;5.13;;
76103;SDS011;64831;44.870;37.336;2022-12-07T20:11:34;9.35;;;4.32;;
76103;SDS011;64831;44.870;37.336;2022-12-07T20:14:20;12.30;;;4.47;;
76103;SDS011;64831;44.870;37.336;2022-12-07T20:16:46;3.88;;;2.00;;
76103;SDS011;64831;44.870;37.336;2022-12-07T20:19:13;5.20;;;1.90;;
76103;SDS011;64831;44.870;37.336;2022-12-07T20:21:40;3.05;;;1.60;;
76103;SDS011;64831;44.870;37.336;2022-12-07T20:24:07;3.63;;;1.65;;
76103;SDS011;64831;44.870;37.336;2022-12-07T20:26:35;4.47;;;1.48;;
76103;SDS011;64831;44.870;37.336;2022-12-07T20:29:05;2.63;;;1.58;;
76103;SDS011;64831;44.870;37.336;2022-12-07T20:31:32;3.05;;;1.50;;
76103;SDS011;64831;44.870;37.336;2022-12-07T20:33:58;1.98;;;1.27;;
76103;SDS011;64831;44.870;37.336;2022-12-07T20:36:24;2.42;;;1.70;;
76103;SDS011;64831;44.870;37.336;2022-12-07T20:38:50;4.15;;;1.70;;
76103;SDS011;64831;44.870;37.336;2022-12-07T20:41:17;4.10;;;1.45;;
76103;SDS011;64831;44.870;37.336;2022-12-07T20:44:02;2.15;;;1.40;;
76103;SDS011;64831;44.870;37.336;2022-12-07T20:46:31;3.65;;;1.55;;
76103;SDS011;64831;44.870;37.336;2022-12-07T20:48:57;6.82;;;1.80;;
76103;SDS011;64831;44.870;37.336;2022-12-07T20:51:28;3.03;;;1.58;;
76103;SDS011;64831;44.870;37.336;2022-12-07T20:53:54;4.53;;;1.60;;
76103;SDS011;64831;44.870;37.336;2022-12-07T20:56:21;4.53;;;1.60;;
76103;SDS011;64831;44.870;37.336;2022-12-07T20:58:52;5.85;;;2.78;;
76103;SDS011;64831;44.870;37.336;2022-12-07T21:01:18;6.35;;;1.77;;
76103;SDS011;64831;44.870;37.336;2022-12-07T21:03:44;5.25;;;1.88;;
76103;SDS011;64831;44.870;37.336;2022-12-07T21:06:13;5.93;;;2.20;;
76103;SDS011;64831;44.870;37.336;2022-12-07T21:08:44;4.65;;;2.17;;
76103;SDS011;64831;44.870;37.336;2022-12-07T21:11:11;6.82;;;2.00;;
76103;SDS011;64831;44.870;37.336;2022-12-07T21:13:38;5.13;;;1.83;;
76103;SDS011;64831;44.870;37.336;2022-12-07T21:16:08;6.95;;;1.88;;
76103;SDS011;64831;44.870;37.336;2022-12-07T21:18:35;3.80;;;1.92;;
76103;SDS011;64831;44.870;37.336;2022-12-07T21:21:06;3.20;;;1.98;;
76103;SDS011;64831;44.870;37.336;2022-12-07T21:23:32;3.30;;;1.90;;
76103;SDS011;64831;44.870;37.336;2022-12-07T21:25:59;2.13;;;1.40;;
76103;SDS011;64831;44.870;37.336;2022-12-07T21:28:25;4.07;;;1.65;;
76103;SDS011;64831;44.870;37.336;2022-12-07T21:30:55;5.20;;;1.98;;
76103;SDS011;64831;44.870;37.336;2022-12-07T21:33:22;5.15;;;1.58;;
76103;SDS011;64831;44.870;37.336;2022-12-07T21:35:48;2.63;;;1.90;;
76103;SDS011;64831;44.870;37.336;2022-12-07T21:38:14;3.45;;;1.77;;
76103;SDS011;64831;44.870;37.336;2022-12-07T21:40:40;4.78;;;1.75;;
76103;SDS011;64831;44.870;37.336;2022-12-07T21:43:06;4.25;;;1.95;;
76103;SDS011;64831;44.870;37.336;2022-12-07T21:45:32;3.08;;;1.67;;
76103;SDS011;64831;44.870;37.336;2022-12-07T21:47:58;4.28;;;1.98;;
76103;SDS011;64831;44.870;37.336;2022-12-07T21:50:24;4.28;;;1.70;;
76103;SDS011;64831;44.870;37.336;2022-12-07T21:52:50;6.30;;;2.00;;
76103;SDS011;64831;44.870;37.336;2022-12-07T21:55:16;2.60;;;1.85;;
76103;SDS011;64831;44.870;37.336;2022-12-07T21:57:42;5.07;;;2.10;;
76103;SDS011;64831;44.870;37.336;2022-12-07T22:00:08;6.53;;;2.20;;
76103;SDS011;64831;44.870;37.336;2022-12-07T22:02:34;8.05;;;2.17;;
76103;SDS011;64831;44.870;37.336;2022-12-07T22:05:00;3.80;;;2.20;;
76103;SDS011;64831;44.870;37.336;2022-12-07T22:07:26;2.83;;;2.00;;
76103;SDS011;64831;44.870;37.336;2022-12-07T22:09:52;7.38;;;2.10;;
76103;SDS011;64831;44.870;37.336;2022-12-07T22:12:18;7.03;;;2.33;;
76103;SDS011;64831;44.870;37.336;2022-12-07T22:14:44;4.78;;;2.47;;
76103;SDS011;64831;44.870;37.336;2022-12-07T22:17:28;5.95;;;2.50;;
76103;SDS011;64831;44.870;37.336;2022-12-07T22:19:54;6.10;;;3.20;;
76103;SDS011;64831;44.870;37.336;2022-12-07T22:22:20;7.07;;;3.75;;
76103;SDS011;64831;44.870;37.336;2022-12-07T22:24:46;11.63;;;3.55;;
76103;SDS011;64831;44.870;37.336;2022-12-07T22:27:15;9.30;;;3.75;;
76103;SDS011;64831;44.870;37.336;2022-12-07T22:29:43;10.68;;;4.10;;
76103;SDS011;64831;44.870;37.336;2022-12-07T22:32:09;8.60;;;4.10;;
76103;SDS011;64831;44.870;37.336;2022-12-07T22:34:38;8.63;;;4.18;;
76103;SDS011;64831;44.870;37.336;2022-12-07T22:37:04;10.63;;;3.78;;
76103;SDS011;64831;44.870;37.336;2022-12-07T22:39:29;10.60;;;3.50;;
76103;SDS011;64831;44.870;37.336;2022-12-07T22:41:55;6.72;;;3.35;;
76103;SDS011;64831;44.870;37.336;2022-12-07T22:44:21;8.18;;;3.97;;
76103;SDS011;64831;44.870;37.336;2022-12-07T22:46:47;9.07;;;3.17;;
76103;SDS011;64831;44.870;37.336;2022-12-07T22:49:13;5.90;;;2.95;;
76103;SDS011;64831;44.870;37.336;2022-12-07T22:51:39;7.38;;;2.40;;
76103;SDS011;64831;44.870;37.336;2022-12-07T22:54:06;5.70;;;2.58;;
76103;SDS011;64831;44.870;37.336;2022-12-07T22:56:34;8.52;;;2.40;;
76103;SDS011;64831;44.870;37.336;2022-12-07T22:59:01;4.13;;;2.30;;
76103;SDS011;64831;44.870;37.336;2022-12-07T23:01:29;5.03;;;2.08;;
76103;SDS011;64831;44.870;37.336;2022-12-07T23:03:55;5.07;;;2.33;;
76103;SDS011;64831;44.870;37.336;2022-12-07T23:06:28;6.22;;;2.42;;
76103;SDS011;64831;44.870;37.336;2022-12-07T23:08:56;7.40;;;2.65;;
76103;SDS011;64831;44.870;37.336;2022-12-07T23:11:28;4.88;;;2.55;;
76103;SDS011;64831;44.870;37.336;2022-12-07T23:14:18;8.65;;;2.47;;
76103;SDS011;64831;44.870;37.336;2022-12-07T23:16:50;3.50;;;2.20;;
76103;SDS011;64831;44.870;37.336;2022-12-07T23:19:16;7.88;;;2.38;;
76103;SDS011;64831;44.870;37.336;2022-12-07T23:21:42;5.78;;;2.63;;
76103;SDS011;64831;44.870;37.336;2022-12-07T23:24:10;9.93;;;2.53;;
76103;SDS011;64831;44.870;37.336;2022-12-07T23:26:37;5.93;;;3.08;;
76103;SDS011;64831;44.870;37.336;2022-12-07T23:29:04;6.20;;;2.92;;
76103;SDS011;64831;44.870;37.336;2022-12-07T23:31:30;7.82;;;2.60;;
76103;SDS011;64831;44.870;37.336;2022-12-07T23:33:56;9.40;;;3.13;;
76103;SDS011;64831;44.870;37.336;2022-12-07T23:36:23;7.63;;;2.40;;
76103;SDS011;64831;44.870;37.336;2022-12-07T23:38:50;6.78;;;2.85;;